Time;durP1;ratioP1;P1;durP2;ratioP2;P2;SDS_P1;SDS_P2;PMS_P1;PMS_P2;Temp;Humidity;BMP_temperature;BMP_pressure;BME280_temperature;BME280_humidity;BME280_pressure;Samples;Min_cycle;Max_cycle;Signal;HPM_P1;HPM_P2
2021/03/26 00:18:08;;;;;;;71.20;47.00;;;;;;;4.65;91.84;101037.75;21084242;27;884573;-60
2021/03/26 00:28:09;;;;;;;68.00;43.80;;;;;;;4.67;90.60;101034.16;21023088;28;20232;-59
2021/03/26 00:48:06;;;;;;;82.50;50.00;;;;;;;4.69;90.95;101034.97;20793202;28;20603;-60
2021/03/26 01:08:03;;;;;;;58.00;36.40;;;;;;;4.68;90.65;101029.72;20998469;28;858816;-62
2021/03/26 01:18:07;;;;;;;60.87;37.63;;;;;;;4.61;90.82;101012.28;21027596;28;20291;-60
2021/03/26 01:48:07;;;;;;;57.13;36.70;;;;;;;4.64;90.86;101028.94;20972132;27;21119;-59
2021/03/26 02:18:20;;;;;;;71.23;45.50;;;;;;;4.36;92.54;101059.66;20860905;27;20680;-59
2021/03/26 02:48:24;;;;;;;88.50;53.10;;;;;;;4.11;93.59;101034.81;20756661;27;21317;-61
2021/03/26 02:58:32;;;;;;;68.90;41.93;;;;;;;4.17;93.55;101034.66;20756914;28;20782;-59
2021/03/26 03:28:58;;;;;;;63.87;39.67;;;;;;;4.42;92.02;101054.25;20848323;27;20606;-60
2021/03/26 03:39:08;;;;;;;67.67;39.33;;;;;;;4.45;92.94;101050.66;20728991;28;20224;-59
2021/03/26 03:49:21;;;;;;;57.93;35.47;;;;;;;4.48;93.20;101048.78;20757577;28;20225;-60
2021/03/26 04:09:30;;;;;;;71.03;43.77;;;;;;;4.38;93.03;101028.78;20665372;27;861243;-59
2021/03/26 04:19:33;;;;;;;74.53;47.60;;;;;;;4.42;92.96;101040.16;20634936;28;20335;-60
2021/03/26 04:29:42;;;;;;;69.87;43.87;;;;;;;4.42;92.99;101041.03;20646628;28;20308;-60
2021/03/26 04:39:49;;;;;;;66.90;41.07;;;;;;;4.44;93.38;101049.78;20627820;28;20235;-60
2021/03/26 04:49:54;;;;;;;79.57;49.03;;;;;;;4.51;93.12;101039.91;20642422;28;20220;-61
2021/03/26 05:09:54;;;;;;;70.60;42.97;;;;;;;4.76;92.87;101071.78;20842839;27;20542;-60
2021/03/26 05:29:51;;;;;;;73.40;44.03;;;;;;;5.10;91.94;101088.41;21042349;27;20985;-59
2021/03/26 05:40:08;;;;;;;63.93;41.23;;;;;;;5.31;91.78;101084.28;21000585;27;20218;-60
2021/03/26 06:30:28;;;;;;;75.43;47.60;;;;;;;7.31;81.96;101121.59;21000185;27;877757;-61
2021/03/26 06:41:14;;;;;;;78.70;51.07;;;;;;;7.44;81.21;101128.16;20990422;28;20228;-62
2021/03/26 06:51:20;;;;;;;74.93;49.77;;;;;;;7.92;81.70;101124.50;21043460;28;20220;-61
2021/03/26 07:01:46;;;;;;;91.27;58.00;;;;;;;8.33;77.57;101133.47;21120815;28;20232;-62
2021/03/26 07:21:59;;;;;;;73.10;48.83;;;;;;;9.02;76.36;101132.19;20911078;27;20629;-66
2021/03/26 07:32:17;;;;;;;82.53;55.50;;;;;;;8.92;74.59;101130.88;20819224;28;20285;-66
2021/03/26 07:43:06;;;;;;;78.93;55.03;;;;;;;9.33;72.32;101141.44;20834010;28;20235;-63
2021/03/26 08:03:22;;;;;;;77.60;52.67;;;;;;;10.92;66.11;101151.38;20971741;27;860871;-61
2021/03/26 08:13:41;;;;;;;66.10;48.67;;;;;;;11.39;67.35;101164.00;20976438;28;20241;-62
2021/03/26 08:33:56;;;;;;;62.87;46.57;;;;;;;11.42;68.85;101182.56;20760549;28;20554;-62
2021/03/26 08:43:57;;;;;;;66.83;49.60;;;;;;;11.38;67.58;101186.31;20751016;28;20729;-62
2021/03/26 08:54:41;;;;;;;66.70;49.47;;;;;;;11.81;63.85;101185.75;20739198;28;20228;-62
2021/03/26 09:05:16;;;;;;;73.83;51.77;;;;;;;12.30;61.49;101182.97;20747369;28;20225;-62
2021/03/26 09:15:31;;;;;;;62.03;44.53;;;;;;;12.57;63.19;101176.00;20748568;28;21916;-61
2021/03/26 09:26:03;;;;;;;66.40;48.17;;;;;;;13.24;57.78;101188.06;20748456;28;20228;-61
2021/03/26 09:36:06;;;;;;;58.27;43.57;;;;;;;14.18;61.62;101191.03;20729999;28;20308;-65
2021/03/26 09:46:10;;;;;;;48.87;38.63;;;;;;;15.00;59.63;101186.34;20723893;28;20269;-65
2021/03/26 09:56:23;;;;;;;42.50;34.73;;;;;;;15.42;55.03;101190.59;20773486;28;20219;-63
2021/03/26 10:06:59;;;;;;;45.30;37.00;;;;;;;15.75;53.45;101183.78;20764786;28;20231;-62
2021/03/26 10:17:22;;;;;;;40.97;31.97;;;;;;;16.52;51.05;101177.19;20778665;28;20705;-62
2021/03/26 10:27:36;;;;;;;34.03;29.67;;;;;;;17.55;50.73;101176.34;20751624;28;20598;-60
2021/03/26 10:37:42;;;;;;;32.50;28.97;;;;;;;18.11;50.78;101173.63;20764575;28;20739;-66
2021/03/26 10:47:45;;;;;;;31.50;28.10;;;;;;;17.66;51.17;101178.22;20762856;28;20254;-64
2021/03/26 10:57:59;;;;;;;29.40;26.23;;;;;;;16.93;49.06;101169.50;20776610;28;20238;-63
2021/03/26 11:08:00;;;;;;;26.53;23.70;;;;;;;16.44;53.91;101166.09;20811994;28;20226;-67
2021/03/26 11:18:15;;;;;;;35.50;31.83;;;;;;;16.20;48.62;101161.56;20764400;28;20224;-66
2021/03/26 11:28:45;;;;;;;33.10;27.33;;;;;;;15.95;48.93;101156.28;20813976;28;20839;-61
2021/03/26 11:38:46;;;;;;;24.93;22.27;;;;;;;15.69;53.05;101157.34;20812653;28;20304;-62
2021/03/26 11:48:58;;;;;;;23.43;20.87;;;;;;;15.41;50.43;101148.50;20812506;28;20220;-67
2021/03/26 11:59:13;;;;;;;27.70;23.73;;;;;;;15.24;51.70;101148.84;20809125;28;20224;-58
2021/03/26 12:09:31;;;;;;;26.00;22.77;;;;;;;15.12;50.73;101137.13;20811010;28;20612;-59
2021/03/26 12:19:34;;;;;;;29.67;25.63;;;;;;;14.96;52.37;101115.00;20809137;28;20222;-68
2021/03/26 12:29:59;;;;;;;27.17;22.27;;;;;;;14.90;51.38;101115.41;20815588;28;20228;-65
2021/03/26 12:40:19;;;;;;;29.50;23.13;;;;;;;14.84;49.80;101104.22;20812134;28;20304;-68
2021/03/26 12:50:32;;;;;;;28.70;23.77;;;;;;;14.95;49.16;101096.28;20811204;28;20220;-65
2021/03/26 13:00:48;;;;;;;29.10;22.97;;;;;;;15.18;50.31;101081.22;20811363;28;20220;-61
2021/03/26 13:10:54;;;;;;;26.67;21.43;;;;;;;15.16;51.43;101078.63;20810145;28;20224;-61
2021/03/26 13:21:26;;;;;;;25.27;21.33;;;;;;;15.19;49.15;101078.41;20826042;28;20656;-62
2021/03/26 13:31:33;;;;;;;26.60;20.77;;;;;;;15.01;50.63;101066.25;20824719;28;20227;-60
2021/03/26 13:41:46;;;;;;;33.53;25.47;;;;;;;14.98;49.99;101069.16;20823429;28;21153;-65
2021/03/26 13:51:50;;;;;;;32.93;24.63;;;;;;;15.10;51.63;101062.91;20822105;28;20215;-60
2021/03/26 14:01:53;;;;;;;25.23;20.40;;;;;;;15.60;51.54;101061.13;20821869;28;20319;-59
2021/03/26 14:12:07;;;;;;;24.67;21.07;;;;;;;16.64;46.58;101055.00;20821084;28;20728;-58
2021/03/26 14:22:11;;;;;;;31.77;24.70;;;;;;;16.71;48.56;101044.59;20819712;28;20230;-60
2021/03/26 14:32:19;;;;;;;37.77;29.83;;;;;;;15.79;46.76;101035.44;20820670;28;20818;-59
2021/03/26 14:42:28;;;;;;;31.73;26.10;;;;;;;15.27;49.88;101027.63;20819566;28;20223;-59
2021/03/26 14:52:53;;;;;;;23.03;18.63;;;;;;;15.12;48.96;101023.34;20818675;28;20242;-58
2021/03/26 15:02:56;;;;;;;24.77;19.70;;;;;;;14.86;51.03;101022.50;20767797;28;20231;-61
2021/03/26 15:13:04;;;;;;;26.17;22.00;;;;;;;14.67;51.79;101006.84;20758008;28;20239;-62
2021/03/26 15:23:16;;;;;;;28.40;21.47;;;;;;;14.37;49.36;101009.78;20753809;28;20224;-61
2021/03/26 15:33:38;;;;;;;34.80;26.63;;;;;;;13.81;51.16;101005.59;20744114;28;20238;-59
2021/03/26 15:43:46;;;;;;;29.93;24.23;;;;;;;13.31;54.08;101000.88;20754231;28;20257;-59
2021/03/26 15:54:07;;;;;;;26.90;21.87;;;;;;;12.97;54.62;100991.44;20741298;28;20250;-59
2021/03/26 16:04:08;;;;;;;26.07;20.03;;;;;;;12.70;55.08;100987.81;20745174;28;20229;-58
2021/03/26 16:14:17;;;;;;;32.10;22.07;;;;;;;12.37;56.03;100988.94;20742662;28;20370;-59
2021/03/26 16:24:38;;;;;;;35.57;26.57;;;;;;;11.92;56.20;100995.25;20752915;28;20840;-61
2021/03/26 16:35:05;;;;;;;47.17;31.73;;;;;;;11.48;57.46;100984.41;20748116;28;20305;-58
2021/03/26 16:55:28;;;;;;;41.53;29.07;;;;;;;10.55;58.65;100984.25;20787173;28;20637;-59
2021/03/26 17:06:05;;;;;;;42.20;30.00;;;;;;;10.13;59.41;100984.69;20769785;28;20224;-59
2021/03/26 17:26:23;;;;;;;56.50;34.43;;;;;;;9.50;61.09;100989.66;21038325;27;20611;-61
2021/03/26 17:36:45;;;;;;;38.93;27.60;;;;;;;9.25;61.66;100994.47;21016165;28;20940;-60
2021/03/26 17:47:17;;;;;;;43.00;28.63;;;;;;;8.96;62.33;101002.00;21036245;28;20331;-61
2021/03/26 17:57:57;;;;;;;43.97;30.57;;;;;;;8.65;63.32;101001.72;20996167;28;20234;-59
2021/03/26 18:08:06;;;;;;;83.97;41.30;;;;;;;8.42;63.73;101008.06;20820559;28;20679;-61
2021/03/26 18:18:31;;;;;;;52.87;35.20;;;;;;;8.29;63.83;101013.03;20770026;28;20336;-63
2021/03/26 18:28:56;;;;;;;58.30;34.33;;;;;;;8.13;63.96;101022.59;20699388;28;20369;-59
2021/03/26 18:39:33;;;;;;;41.33;28.83;;;;;;;7.93;64.97;101027.91;20731778;28;20232;-59
2021/03/26 18:59:58;;;;;;;44.20;30.10;;;;;;;7.61;64.33;101017.75;20957535;27;20652;-58
2021/03/26 19:10:11;;;;;;;46.97;31.23;;;;;;;7.56;64.58;101026.75;20935580;27;20328;-65
2021/03/26 19:20:35;;;;;;;47.17;29.70;;;;;;;7.46;64.19;101024.53;20951849;27;20364;-58
2021/03/26 19:30:46;;;;;;;37.57;26.20;;;;;;;7.34;64.77;101025.91;20936511;27;20216;-59
2021/03/26 20:00:40;;;;;;;39.33;27.57;;;;;;;7.08;65.34;101034.00;20890852;27;20626;-62
2021/03/26 20:11:01;;;;;;;40.70;28.90;;;;;;;6.88;65.87;101018.84;20883742;28;20219;-62
2021/03/26 20:21:25;;;;;;;36.27;27.13;;;;;;;6.73;66.80;101022.94;20882988;28;20265;-66
2021/03/26 20:31:50;;;;;;;40.87;27.33;;;;;;;6.62;67.25;101022.47;20881988;28;20453;-59
2021/03/26 20:42:18;;;;;;;41.07;28.17;;;;;;;6.43;68.00;101016.97;20881155;28;20239;-60
2021/03/26 20:52:38;;;;;;;42.10;30.13;;;;;;;6.30;68.07;101012.16;20877488;28;20708;-64
2021/03/26 21:32:39;;;;;;;43.03;29.47;;;;;;;6.13;69.37;101003.03;20854639;27;21045;-62
2021/03/26 22:02:53;;;;;;;30.47;20.87;;;;;;;5.84;70.13;100992.53;21009326;27;20565;-59
2021/03/26 22:12:59;;;;;;;28.23;19.73;;;;;;;5.82;70.50;100989.06;20983406;28;20228;-58
2021/03/26 22:23:28;;;;;;;28.70;20.67;;;;;;;5.81;71.19;100992.63;21000517;28;20327;-56
2021/03/26 22:33:38;;;;;;;23.57;16.47;;;;;;;5.74;71.19;100997.28;21011324;28;20223;-57
2021/03/26 22:43:41;;;;;;;22.43;16.53;;;;;;;5.70;71.19;100984.19;20974162;28;20234;-68
2021/03/26 22:54:04;;;;;;;24.73;17.50;;;;;;;5.68;71.04;100976.28;20953630;28;20673;-67
2021/03/26 23:14:07;;;;;;;24.00;16.40;;;;;;;5.62;71.95;100980.94;20884818;28;20590;-62
2021/03/26 23:53:59;;;;;;;28.73;19.67;;;;;;;6.42;70.33;100945.44;20801949;27;20583;-59
